createdAt,value
2022-08-17T00:00:33.219Z,4.03
2022-08-17T00:03:05.732Z,3.70
2022-08-17T00:05:35.704Z,3.80
2022-08-17T00:08:04.056Z,4.07
2022-08-17T00:10:33.571Z,3.90
2022-08-17T00:13:03.976Z,4.30
2022-08-17T00:15:32.162Z,4.33
2022-08-17T00:18:00.338Z,3.90
2022-08-17T00:20:34.725Z,4.20
2022-08-17T00:23:07.234Z,3.70
2022-08-17T00:25:36.783Z,3.50
2022-08-17T00:28:06.243Z,3.93
2022-08-17T00:30:53.196Z,3.90
2022-08-17T00:33:23.981Z,4.20
2022-08-17T00:35:52.329Z,4.20
2022-08-17T00:38:20.658Z,3.60
2022-08-17T00:40:51.695Z,3.93
2022-08-17T00:43:22.439Z,4.00
2022-08-17T00:45:50.665Z,4.07
2022-08-17T00:48:30.211Z,4.10
2022-08-17T00:51:05.261Z,3.87
2022-08-17T00:53:34.209Z,4.40
2022-08-17T00:56:04.900Z,3.90
2022-08-17T00:58:36.472Z,3.80
2022-08-17T01:01:06.017Z,3.63
2022-08-17T01:03:34.278Z,3.60
2022-08-17T01:06:02.476Z,3.87
2022-08-17T01:08:31.248Z,3.90
2022-08-17T01:11:04.182Z,3.90
2022-08-17T01:13:40.722Z,3.87
2022-08-17T01:16:13.293Z,4.00
2022-08-17T01:18:42.266Z,3.67
2022-08-17T01:21:12.344Z,4.00
2022-08-17T01:23:42.538Z,4.00
2022-08-17T01:26:10.615Z,4.63
2022-08-17T01:28:53.850Z,4.10
2022-08-17T01:31:23.866Z,3.83
2022-08-17T01:33:52.016Z,4.77
2022-08-17T01:36:20.450Z,4.10
2022-08-17T01:38:49.969Z,4.10
2022-08-17T01:41:18.225Z,4.00
2022-08-17T01:43:47.404Z,3.63
2022-08-17T01:46:16.714Z,3.93
2022-08-17T01:48:47.579Z,3.60
2022-08-17T01:51:16.402Z,4.43
2022-08-17T01:53:46.732Z,3.83
2022-08-17T01:56:17.967Z,3.77
2022-08-17T01:58:46.281Z,3.90
2022-08-17T02:01:17.711Z,3.90
2022-08-17T02:03:59.193Z,4.23
2022-08-17T02:06:29.654Z,4.03
2022-08-17T02:09:03.152Z,3.90
2022-08-17T02:11:33.444Z,3.93
2022-08-17T02:14:04.056Z,3.87
2022-08-17T02:16:37.565Z,3.97
2022-08-17T02:19:07.204Z,3.83
2022-08-17T02:21:35.368Z,3.80
2022-08-17T02:24:03.773Z,3.90
2022-08-17T02:26:33.392Z,4.13
2022-08-17T02:29:01.500Z,4.10
2022-08-17T02:31:31.239Z,3.93
2022-08-17T02:34:04.055Z,4.00
2022-08-17T02:36:33.911Z,4.13
2022-08-17T02:39:02.519Z,4.40
2022-08-17T02:41:31.049Z,3.90
2022-08-17T02:44:00.860Z,4.10
2022-08-17T02:46:29.216Z,4.33
2022-08-17T02:48:57.584Z,4.60
2022-08-17T02:51:25.784Z,4.40
2022-08-17T02:54:39.106Z,4.40
2022-08-17T02:56:42.088Z,4.20
2022-08-17T02:59:11.955Z,4.43
2022-08-17T03:01:40.589Z,3.93
2022-08-17T03:04:08.868Z,3.83
2022-08-17T03:06:37.546Z,4.67
2022-08-17T03:09:05.874Z,4.17
2022-08-17T03:11:34.370Z,4.63
2022-08-17T03:14:02.505Z,4.43
2022-08-17T03:16:31.980Z,4.33
2022-08-17T03:19:01.591Z,3.77
2022-08-17T03:21:29.723Z,4.53
2022-08-17T03:23:58.269Z,4.23
2022-08-17T03:26:29.840Z,3.97
2022-08-17T03:28:58.056Z,3.80
2022-08-17T03:31:26.265Z,5.23
2022-08-17T03:33:56.491Z,4.40
2022-08-17T03:36:24.808Z,4.47
2022-08-17T03:38:53.391Z,4.13
2022-08-17T03:41:23.246Z,4.20
2022-08-17T03:43:51.445Z,4.00
2022-08-17T03:46:36.798Z,4.27
2022-08-17T03:49:24.369Z,4.37
2022-08-17T03:52:10.181Z,4.63
2022-08-17T03:54:55.403Z,4.33
2022-08-17T03:57:23.559Z,4.60
2022-08-17T03:59:51.654Z,4.23
2022-08-17T04:02:21.068Z,4.33
2022-08-17T04:04:51.357Z,4.50
2022-08-17T04:07:19.932Z,4.37
2022-08-17T04:09:48.115Z,4.00
2022-08-17T04:12:16.338Z,4.47
2022-08-17T04:14:52.149Z,4.50
2022-08-17T04:17:22.996Z,4.33
2022-08-17T04:19:53.098Z,4.27
2022-08-17T04:22:32.089Z,4.57
2022-08-17T04:25:09.148Z,4.70
2022-08-17T04:27:37.422Z,4.70
2022-08-17T04:30:07.463Z,4.40
2022-08-17T04:33:03.605Z,4.13
2022-08-17T04:35:36.816Z,4.57
2022-08-17T04:38:05.186Z,5.00
2022-08-17T04:40:50.560Z,4.60
2022-08-17T04:43:19.782Z,4.50
2022-08-17T04:45:55.148Z,4.50
2022-08-17T04:48:29.770Z,4.50
2022-08-17T04:51:10.022Z,4.60
2022-08-17T04:53:39.615Z,4.90
2022-08-17T04:56:08.271Z,4.90
2022-08-17T04:58:44.716Z,4.77
2022-08-17T05:01:13.542Z,4.60
2022-08-17T05:03:42.157Z,4.83
2022-08-17T05:06:11.954Z,4.60
2022-08-17T05:08:40.264Z,4.70
2022-08-17T05:11:08.502Z,4.30
2022-08-17T05:13:36.650Z,4.37
2022-08-17T05:16:05.325Z,4.20
2022-08-17T05:18:33.707Z,4.40
2022-08-17T05:21:01.854Z,4.60
2022-08-17T05:23:41.875Z,5.10
2022-08-17T05:26:21.970Z,4.63
2022-08-17T05:28:57.201Z,4.60
2022-08-17T05:31:28.817Z,4.30
2022-08-17T05:33:57.064Z,4.30
2022-08-17T05:36:41.622Z,3.93
2022-08-17T05:39:15.790Z,4.50
2022-08-17T05:41:49.094Z,4.30
2022-08-17T05:44:17.652Z,4.13
2022-08-17T05:46:48.810Z,3.90
2022-08-17T05:49:17.400Z,3.90
2022-08-17T05:52:14.882Z,3.97
2022-08-17T05:54:56.288Z,4.00
2022-08-17T05:57:56.106Z,4.43
2022-08-17T06:00:30.877Z,4.10
2022-08-17T06:03:08.575Z,3.40
2022-08-17T06:05:46.276Z,3.90
2022-08-17T06:08:18.743Z,4.73
2022-08-17T06:10:53.292Z,3.70
2022-08-17T06:13:24.219Z,4.00
2022-08-17T06:15:57.677Z,3.40
2022-08-17T06:18:27.993Z,3.80
2022-08-17T06:20:57.709Z,3.40
2022-08-17T06:23:27.637Z,4.00
2022-08-17T06:26:03.867Z,3.77
2022-08-17T06:28:37.204Z,3.60
2022-08-17T06:31:07.541Z,4.20
2022-08-17T06:33:37.402Z,4.20
2022-08-17T06:36:15.860Z,4.40
2022-08-17T06:38:47.915Z,4.20
2022-08-17T06:41:19.841Z,3.97
2022-08-17T06:43:52.261Z,4.23
2022-08-17T06:46:23.261Z,3.93
2022-08-17T06:48:58.290Z,4.03
2022-08-17T06:51:29.411Z,4.20
2022-08-17T06:54:01.325Z,4.30
2022-08-17T06:56:54.251Z,3.40
2022-08-17T06:59:25.491Z,3.10
2022-08-17T07:01:56.466Z,3.03
2022-08-17T07:04:27.373Z,3.70
2022-08-17T07:06:58.270Z,2.93
2022-08-17T07:09:29.572Z,3.13
2022-08-17T07:12:00.638Z,3.30
2022-08-17T07:14:36.602Z,3.00
2022-08-17T07:17:08.083Z,3.13
2022-08-17T07:19:38.254Z,2.90
2022-08-17T07:22:14.093Z,2.77
2022-08-17T07:24:47.743Z,3.03
2022-08-17T07:27:21.330Z,3.20
2022-08-17T07:29:53.724Z,2.70
2022-08-17T07:32:25.453Z,3.07
2022-08-17T07:35:15.319Z,2.37
2022-08-17T07:37:45.585Z,2.87
2022-08-17T07:40:19.639Z,2.90
2022-08-17T07:43:19.930Z,2.37
2022-08-17T07:46:33.309Z,2.63
2022-08-17T07:49:33.693Z,2.60
2022-08-17T07:52:24.856Z,3.00
2022-08-17T07:54:51.922Z,2.87
2022-08-17T07:57:34.594Z,2.53
2022-08-17T08:00:32.480Z,2.73
2022-08-17T08:03:03.720Z,2.57
2022-08-17T08:05:50.540Z,2.40
2022-08-17T08:08:26.870Z,2.50
2022-08-17T08:11:08.328Z,2.60
2022-08-17T08:13:40.510Z,2.60
2022-08-17T08:16:27.103Z,2.87
2022-08-17T08:18:57.957Z,2.80
2022-08-17T08:21:34.436Z,2.30
2022-08-17T08:24:17.033Z,2.90
2022-08-17T08:26:47.708Z,2.80
2022-08-17T08:29:28.272Z,2.60
2022-08-17T08:32:02.624Z,2.50
2022-08-17T08:35:01.386Z,2.93
2022-08-17T08:37:42.492Z,2.50
2022-08-17T08:40:16.238Z,2.80
2022-08-17T08:42:46.828Z,2.70
2022-08-17T08:45:16.982Z,2.83
2022-08-17T08:47:57.468Z,2.30
2022-08-17T08:50:40.425Z,2.57
2022-08-17T08:53:14.663Z,2.43
2022-08-17T08:55:49.368Z,2.30
2022-08-17T08:58:30.653Z,2.13
2022-08-17T09:01:08.977Z,2.70
2022-08-17T09:04:18.330Z,2.60
2022-08-17T09:06:50.882Z,2.60
2022-08-17T09:09:25.496Z,2.70
2022-08-17T09:12:02.742Z,2.90
2022-08-17T09:14:44.877Z,2.77
2022-08-17T09:17:16.421Z,2.50
2022-08-17T09:19:49.581Z,2.83
2022-08-17T09:22:25.218Z,2.63
2022-08-17T09:24:57.286Z,2.40
2022-08-17T09:27:28.383Z,2.60
2022-08-17T09:29:58.904Z,2.83
2022-08-17T09:32:34.244Z,2.30
2022-08-17T09:35:10.575Z,2.67
2022-08-17T09:37:44.314Z,2.43
2022-08-17T09:40:15.165Z,2.50
2022-08-17T09:42:46.828Z,2.70
2022-08-17T09:45:24.900Z,2.67
2022-08-17T09:47:55.236Z,2.90
2022-08-17T09:51:03.388Z,2.53
2022-08-17T09:53:17.575Z,2.47
2022-08-17T09:55:58.041Z,2.43
2022-08-17T09:58:30.954Z,2.50
2022-08-17T10:01:02.129Z,2.40
2022-08-17T10:03:39.718Z,2.30
2022-08-17T10:06:13.393Z,2.37
2022-08-17T10:08:45.168Z,2.30
2022-08-17T10:11:20.211Z,2.60
2022-08-17T10:13:52.941Z,2.40
2022-08-17T10:16:24.488Z,2.60
2022-08-17T10:19:07.631Z,2.37
2022-08-17T10:22:01.492Z,3.00
2022-08-17T10:25:21.068Z,2.50
2022-08-17T10:27:52.331Z,2.50
2022-08-17T10:30:22.158Z,2.50
2022-08-17T10:32:55.211Z,2.37
2022-08-17T10:35:43.132Z,2.00
2022-08-17T10:38:38.323Z,2.40
2022-08-17T10:41:19.171Z,2.40
2022-08-17T10:44:37.041Z,2.33
2022-08-17T10:46:52.411Z,2.30
2022-08-17T10:49:25.844Z,2.40
2022-08-17T10:51:54.717Z,2.10
2022-08-17T10:54:38.717Z,2.20
2022-08-17T10:57:39.011Z,2.30
2022-08-17T11:00:14.926Z,2.30
2022-08-17T11:02:49.980Z,2.37
2022-08-17T11:05:43.486Z,2.30
2022-08-17T11:08:42.507Z,2.17
2022-08-17T11:11:20.835Z,2.20
2022-08-17T11:13:52.774Z,2.37
2022-08-17T11:16:39.149Z,2.30
2022-08-17T11:19:32.700Z,2.40
2022-08-17T11:22:18.387Z,2.37
2022-08-17T11:24:47.793Z,2.30
2022-08-17T11:27:25.993Z,2.10
2022-08-17T11:30:01.579Z,2.77
2022-08-17T11:32:33.885Z,1.90
2022-08-17T11:35:22.216Z,2.03
2022-08-17T11:37:55.069Z,2.77
2022-08-17T11:40:39.058Z,2.00
2022-08-17T11:43:30.150Z,2.23
2022-08-17T11:46:08.251Z,2.30
2022-08-17T11:48:56.247Z,2.30
2022-08-17T11:51:34.561Z,2.33
2022-08-17T11:56:59.072Z,2.00
2022-08-17T11:59:59.745Z,2.13
2022-08-17T12:02:38.856Z,2.10
2022-08-17T12:05:28.771Z,2.10
2022-08-17T12:08:15.272Z,2.43
2022-08-17T12:10:51.623Z,2.23
2022-08-17T12:13:20.082Z,2.10
2022-08-17T12:15:52.775Z,2.00
2022-08-17T12:18:22.199Z,2.00
2022-08-17T12:21:00.987Z,2.40
2022-08-17T12:23:35.355Z,2.30
2022-08-17T12:26:05.912Z,2.20
2022-08-17T12:28:35.095Z,2.30
2022-08-17T12:31:05.900Z,2.10
2022-08-17T12:33:34.094Z,2.20
2022-08-17T12:36:04.024Z,2.17
2022-08-17T12:38:35.095Z,2.30
2022-08-17T12:41:25.507Z,2.13
2022-08-17T12:44:01.580Z,2.27
2022-08-17T12:46:33.736Z,1.90
2022-08-17T12:49:15.703Z,2.10
2022-08-17T12:51:45.493Z,2.00
2022-08-17T12:54:24.401Z,2.10
2022-08-17T12:56:52.643Z,2.10
2022-08-17T12:59:28.643Z,2.10
2022-08-17T13:02:00.633Z,2.20
2022-08-17T13:04:29.644Z,2.17
2022-08-17T13:06:59.982Z,2.20
2022-08-17T13:09:36.092Z,2.00
2022-08-17T13:12:09.150Z,2.10
2022-08-17T13:14:37.365Z,2.10
2022-08-17T13:17:12.648Z,2.20
2022-08-17T13:19:48.611Z,2.20
2022-08-17T13:22:16.761Z,2.30
2022-08-17T13:24:53.285Z,2.00
2022-08-17T13:27:21.574Z,2.20
2022-08-17T13:29:53.169Z,2.23
2022-08-17T13:32:26.226Z,2.20
2022-08-17T13:35:12.391Z,2.33
2022-08-17T13:38:01.423Z,2.23
2022-08-17T13:40:37.897Z,2.43
2022-08-17T13:43:06.044Z,2.40
2022-08-17T13:45:39.285Z,2.73
2022-08-17T13:48:13.864Z,2.33
2022-08-17T13:50:43.813Z,2.47
2022-08-17T13:53:22.782Z,2.50
2022-08-17T13:55:52.478Z,2.30
2022-08-17T13:58:21.888Z,2.43
2022-08-17T14:00:51.697Z,2.33
2022-08-17T14:03:21.372Z,2.53
2022-08-17T14:05:50.193Z,2.20
2022-08-17T14:08:18.847Z,2.37
2022-08-17T14:10:47.786Z,2.70
2022-08-17T14:13:18.676Z,2.00
2022-08-17T14:15:55.063Z,2.00
2022-08-17T14:18:37.532Z,2.40
2022-08-17T14:21:14.580Z,2.23
2022-08-17T14:23:54.652Z,2.30
2022-08-17T14:26:23.296Z,2.40
2022-08-17T14:28:54.671Z,2.30
2022-08-17T14:31:25.041Z,2.27
2022-08-17T14:33:54.704Z,2.40
2022-08-17T14:36:22.827Z,2.27
2022-08-17T14:38:51.088Z,2.43
2022-08-17T14:41:22.150Z,2.30
2022-08-17T14:43:51.450Z,2.63
2022-08-17T14:46:19.623Z,2.50
2022-08-17T14:48:48.546Z,2.33
2022-08-17T14:51:18.097Z,2.30
2022-08-17T14:53:46.554Z,2.03
2022-08-17T14:56:14.695Z,2.20
2022-08-17T14:58:43.356Z,1.90
2022-08-17T15:01:12.018Z,2.30
2022-08-17T15:03:41.000Z,2.63
2022-08-17T15:06:09.647Z,2.70
2022-08-17T15:08:39.194Z,2.50
2022-08-17T15:11:07.945Z,2.53
2022-08-17T15:13:52.680Z,2.70
2022-08-17T15:16:21.598Z,2.40
2022-08-17T15:18:50.280Z,2.27
2022-08-17T15:21:18.942Z,2.43
2022-08-17T15:23:48.960Z,2.30
2022-08-17T15:26:17.634Z,2.70
2022-08-17T15:28:48.997Z,2.40
2022-08-17T15:31:32.313Z,2.47
2022-08-17T15:34:00.522Z,2.53
2022-08-17T15:36:29.148Z,2.47
2022-08-17T15:38:59.019Z,2.67
2022-08-17T15:41:28.186Z,2.60
2022-08-17T15:43:56.508Z,2.40
2022-08-17T15:46:25.687Z,2.40
2022-08-17T15:48:55.708Z,2.30
2022-08-17T15:51:26.134Z,2.30
2022-08-17T15:53:55.675Z,2.33
2022-08-17T15:56:25.344Z,2.53
2022-08-17T15:58:54.891Z,2.30
2022-08-17T16:03:01.639Z,2.50
2022-08-17T16:04:29.849Z,2.50
2022-08-17T16:06:58.764Z,2.33
2022-08-17T16:09:26.959Z,2.30
2022-08-17T16:11:56.761Z,2.60
2022-08-17T16:14:30.308Z,2.60
2022-08-17T16:17:02.728Z,2.50
2022-08-17T16:19:30.859Z,2.63
2022-08-17T16:21:59.377Z,2.60
2022-08-17T16:24:27.615Z,2.50
2022-08-17T16:26:57.255Z,2.40
2022-08-17T16:29:25.393Z,2.70
2022-08-17T16:31:54.030Z,2.87
2022-08-17T16:34:22.132Z,2.97
2022-08-17T16:36:55.198Z,2.57
2022-08-17T16:39:26.259Z,2.53
2022-08-17T16:41:54.884Z,2.47
2022-08-17T16:44:25.758Z,2.43
2022-08-17T16:46:54.250Z,2.40
2022-08-17T16:49:35.937Z,2.40
2022-08-17T16:52:07.848Z,2.50
2022-08-17T16:54:36.454Z,2.40
2022-08-17T16:57:05.663Z,2.60
2022-08-17T16:59:41.031Z,2.27
2022-08-17T17:02:15.507Z,2.77
2022-08-17T17:04:48.987Z,3.17
2022-08-17T17:07:25.810Z,2.73
2022-08-17T17:09:55.599Z,2.43
2022-08-17T17:13:01.183Z,2.67
2022-08-17T17:15:18.777Z,2.90
2022-08-17T17:17:50.675Z,2.70
2022-08-17T17:20:21.784Z,2.50
2022-08-17T17:23:01.627Z,2.70
2022-08-17T17:25:31.505Z,2.30
2022-08-17T17:28:02.425Z,3.03
2022-08-17T17:30:34.304Z,2.53
2022-08-17T17:33:04.988Z,2.50
2022-08-17T17:35:34.663Z,2.70
2022-08-17T17:38:05.180Z,2.63
2022-08-17T17:40:36.934Z,2.63
2022-08-17T17:43:34.853Z,3.03
2022-08-17T17:45:57.677Z,2.43
2022-08-17T17:48:35.813Z,2.77
2022-08-17T17:51:09.711Z,2.60
2022-08-17T17:53:43.514Z,2.20
2022-08-17T17:56:19.606Z,2.80
2022-08-17T17:59:03.804Z,2.60
2022-08-17T18:01:42.940Z,2.67
2022-08-17T18:04:21.090Z,2.60
2022-08-17T18:07:15.390Z,2.77
2022-08-17T18:10:01.540Z,2.60
2022-08-17T18:12:36.181Z,2.43
2022-08-17T18:15:21.597Z,2.50
2022-08-17T18:18:22.668Z,3.10
2022-08-17T18:20:54.137Z,2.80
2022-08-17T18:23:28.111Z,2.83
2022-08-17T18:25:56.977Z,2.63
2022-08-17T18:28:26.582Z,2.80
2022-08-17T18:31:12.081Z,2.80
2022-08-17T18:33:42.464Z,2.63
2022-08-17T18:36:11.489Z,3.30
2022-08-17T18:38:40.768Z,3.17
2022-08-17T18:41:20.423Z,3.00
2022-08-17T18:44:00.417Z,3.20
2022-08-17T18:46:30.542Z,3.07
2022-08-17T18:49:01.159Z,2.93
2022-08-17T18:51:40.996Z,5.37
2022-08-17T18:54:17.299Z,5.13
2022-08-17T18:56:49.280Z,5.30
2022-08-17T18:59:28.005Z,4.33
2022-08-17T19:02:10.221Z,4.60
2022-08-17T19:04:59.072Z,5.23
2022-08-17T19:07:29.605Z,6.10
2022-08-17T19:10:00.281Z,4.87
2022-08-17T19:12:33.251Z,5.40
2022-08-17T19:15:01.522Z,4.43
2022-08-17T19:17:35.458Z,5.00
2022-08-17T19:20:09.655Z,5.13
2022-08-17T19:22:46.661Z,5.27
2022-08-17T19:25:17.100Z,4.73
2022-08-17T19:27:49.218Z,5.30
2022-08-17T19:30:27.843Z,5.50
2022-08-17T19:32:57.762Z,5.60
2022-08-17T19:35:30.891Z,5.20
2022-08-17T19:38:04.056Z,5.20
2022-08-17T19:40:52.461Z,5.07
2022-08-17T19:43:24.708Z,4.80
2022-08-17T19:45:59.519Z,5.07
2022-08-17T19:48:35.790Z,4.83
2022-08-17T19:51:07.668Z,4.37
2022-08-17T19:54:03.876Z,4.70
2022-08-17T19:56:32.075Z,4.47
2022-08-17T19:59:02.624Z,4.07
2022-08-17T20:01:35.908Z,3.87
2022-08-17T20:04:08.619Z,3.83
2022-08-17T20:06:40.396Z,4.07
2022-08-17T20:09:15.258Z,4.17
2022-08-17T20:11:46.648Z,4.20
2022-08-17T20:14:16.356Z,3.83
2022-08-17T20:16:44.479Z,3.80
2022-08-17T20:19:24.502Z,4.13
2022-08-17T20:21:56.093Z,3.70
2022-08-17T20:24:30.225Z,3.90
2022-08-17T20:27:00.156Z,4.23
2022-08-17T20:29:37.676Z,4.17
2022-08-17T20:32:25.294Z,4.20
2022-08-17T20:35:17.360Z,4.03
2022-08-17T20:38:02.210Z,3.97
2022-08-17T20:40:35.572Z,3.70
2022-08-17T20:43:37.184Z,3.53
2022-08-17T20:46:13.639Z,3.70
2022-08-17T20:48:43.250Z,3.30
2022-08-17T20:51:27.202Z,3.40
2022-08-17T20:54:27.832Z,3.83
2022-08-17T20:56:57.684Z,3.60
2022-08-17T21:00:18.267Z,3.63
2022-08-17T21:02:47.573Z,3.80
2022-08-17T21:05:30.848Z,3.70
2022-08-17T21:08:00.819Z,3.83
2022-08-17T21:10:36.650Z,3.70
2022-08-17T21:13:46.343Z,3.60
2022-08-17T21:16:32.774Z,3.60
2022-08-17T21:19:07.560Z,4.00
2022-08-17T21:21:41.782Z,4.00
2022-08-17T21:24:16.542Z,3.73
2022-08-17T21:26:51.187Z,3.77
2022-08-17T21:29:31.859Z,4.00
2022-08-17T21:32:23.696Z,4.53
2022-08-17T21:35:28.947Z,4.10
2022-08-17T21:38:00.141Z,3.93
2022-08-17T21:40:29.165Z,3.80
2022-08-17T21:43:00.164Z,4.13
2022-08-17T21:45:31.271Z,4.10
2022-08-17T21:48:12.748Z,3.60
2022-08-17T21:50:42.373Z,4.00
2022-08-17T21:53:10.820Z,3.67
2022-08-17T21:55:39.023Z,3.37
2022-08-17T21:58:13.807Z,3.80
2022-08-17T22:00:44.338Z,3.50
2022-08-17T22:03:24.430Z,3.30
2022-08-17T22:05:52.659Z,3.50
2022-08-17T22:08:23.737Z,4.10
2022-08-17T22:10:52.373Z,4.03
2022-08-17T22:13:23.335Z,3.80
2022-08-17T22:16:15.574Z,4.00
2022-08-17T22:18:58.126Z,3.60
2022-08-17T22:21:26.436Z,3.53
2022-08-17T22:24:05.261Z,3.97
2022-08-17T22:27:00.204Z,3.60
2022-08-17T22:29:57.116Z,3.60
2022-08-17T22:32:37.810Z,3.90
2022-08-17T22:35:40.101Z,3.83
2022-08-17T22:38:26.960Z,3.73
2022-08-17T22:40:56.137Z,4.03
2022-08-17T22:43:26.581Z,4.43
2022-08-17T22:45:58.677Z,3.77
2022-08-17T22:48:27.792Z,4.17
2022-08-17T22:51:04.893Z,3.83
2022-08-17T22:54:04.699Z,4.10
2022-08-17T22:56:50.096Z,4.00
2022-08-17T22:59:35.325Z,4.63
2022-08-17T23:02:22.805Z,4.00
2022-08-17T23:04:53.021Z,3.93
2022-08-17T23:07:21.525Z,4.07
2022-08-17T23:09:50.218Z,4.27
2022-08-17T23:12:22.766Z,4.13
2022-08-17T23:14:52.628Z,3.90
2022-08-17T23:17:22.126Z,4.13
2022-08-17T23:19:50.302Z,4.80
2022-08-17T23:22:18.709Z,8.50
2022-08-17T23:24:49.037Z,11.30
2022-08-17T23:27:17.317Z,11.67
2022-08-17T23:29:47.151Z,9.50
2022-08-17T23:32:16.312Z,9.70
2022-08-17T23:34:48.249Z,10.07
2022-08-17T23:37:16.869Z,9.20
2022-08-17T23:39:45.819Z,10.90
2022-08-17T23:42:15.853Z,11.00
2022-08-17T23:44:44.104Z,9.13
2022-08-17T23:47:12.261Z,10.27
2022-08-17T23:49:41.439Z,9.80
2022-08-17T23:52:12.693Z,9.17
2022-08-17T23:54:44.700Z,9.27
2022-08-17T23:57:13.324Z,9.33
2022-08-17T23:59:43.885Z,9.27
